sensor_id;sensor_type;location;lat;lon;timestamp;temperature;humidity
64869;DHT22;51349;52.424;10.840;2022-09-02T00:01:44;11.10;99.90
64869;DHT22;51349;52.424;10.840;2022-09-02T00:06:46;11.00;99.90
64869;DHT22;51349;52.424;10.840;2022-09-02T00:11:49;11.00;99.90
64869;DHT22;51349;52.424;10.840;2022-09-02T00:16:50;10.80;99.90
64869;DHT22;51349;52.424;10.840;2022-09-02T00:21:53;10.90;99.90
64869;DHT22;51349;52.424;10.840;2022-09-02T00:26:55;10.80;99.90
64869;DHT22;51349;52.424;10.840;2022-09-02T00:31:56;10.70;99.90
64869;DHT22;51349;52.424;10.840;2022-09-02T00:37:01;10.60;99.90
64869;DHT22;51349;52.424;10.840;2022-09-02T00:42:03;10.60;99.90
64869;DHT22;51349;52.424;10.840;2022-09-02T00:47:04;10.40;99.90
64869;DHT22;51349;52.424;10.840;2022-09-02T00:52:27;10.30;99.90
64869;DHT22;51349;52.424;10.840;2022-09-02T00:57:39;10.40;99.90
64869;DHT22;51349;52.424;10.840;2022-09-02T01:02:52;10.40;99.90
64869;DHT22;51349;52.424;10.840;2022-09-02T01:07:54;10.40;99.90
64869;DHT22;51349;52.424;10.840;2022-09-02T01:13:04;10.50;99.90
64869;DHT22;51349;52.424;10.840;2022-09-02T01:18:09;10.40;99.90
64869;DHT22;51349;52.424;10.840;2022-09-02T01:23:10;10.30;99.90
64869;DHT22;51349;52.424;10.840;2022-09-02T01:28:15;10.30;99.90
64869;DHT22;51349;52.424;10.840;2022-09-02T01:33:17;10.20;99.90
64869;DHT22;51349;52.424;10.840;2022-09-02T01:38:20;10.20;99.90
64869;DHT22;51349;52.424;10.840;2022-09-02T01:43:28;10.20;99.90
64869;DHT22;51349;52.424;10.840;2022-09-02T01:48:34;10.20;99.90
64869;DHT22;51349;52.424;10.840;2022-09-02T01:53:34;10.10;99.90
64869;DHT22;51349;52.424;10.840;2022-09-02T01:58:36;10.00;99.90
64869;DHT22;51349;52.424;10.840;2022-09-02T02:03:43;10.00;99.90
64869;DHT22;51349;52.424;10.840;2022-09-02T02:08:44;9.80;99.90
64869;DHT22;51349;52.424;10.840;2022-09-02T02:13:45;9.80;99.90
64869;DHT22;51349;52.424;10.840;2022-09-02T02:18:46;9.80;99.90
64869;DHT22;51349;52.424;10.840;2022-09-02T02:23:47;9.80;99.90
64869;DHT22;51349;52.424;10.840;2022-09-02T02:28:56;9.80;99.90
64869;DHT22;51349;52.424;10.840;2022-09-02T02:33:57;9.70;99.90
64869;DHT22;51349;52.424;10.840;2022-09-02T02:39:02;9.80;99.90
64869;DHT22;51349;52.424;10.840;2022-09-02T02:44:04;9.80;99.90
64869;DHT22;51349;52.424;10.840;2022-09-02T02:49:10;9.70;99.90
64869;DHT22;51349;52.424;10.840;2022-09-02T02:54:16;9.60;99.90
64869;DHT22;51349;52.424;10.840;2022-09-02T02:59:17;9.60;99.90
64869;DHT22;51349;52.424;10.840;2022-09-02T03:04:21;9.50;99.90
64869;DHT22;51349;52.424;10.840;2022-09-02T03:09:22;9.50;99.90
64869;DHT22;51349;52.424;10.840;2022-09-02T03:14:25;9.50;99.90
64869;DHT22;51349;52.424;10.840;2022-09-02T03:19:28;9.40;99.90
64869;DHT22;51349;52.424;10.840;2022-09-02T03:24:29;9.40;99.90
64869;DHT22;51349;52.424;10.840;2022-09-02T03:29:34;9.40;99.90
64869;DHT22;51349;52.424;10.840;2022-09-02T03:34:37;9.50;99.90
64869;DHT22;51349;52.424;10.840;2022-09-02T03:39:38;9.50;99.90
64869;DHT22;51349;52.424;10.840;2022-09-02T03:44:43;9.50;99.90
64869;DHT22;51349;52.424;10.840;2022-09-02T03:49:44;9.50;99.90
64869;DHT22;51349;52.424;10.840;2022-09-02T03:54:48;9.40;99.90
64869;DHT22;51349;52.424;10.840;2022-09-02T03:59:49;9.50;99.90
64869;DHT22;51349;52.424;10.840;2022-09-02T04:04:53;9.50;99.90
64869;DHT22;51349;52.424;10.840;2022-09-02T04:09:54;9.50;99.90
64869;DHT22;51349;52.424;10.840;2022-09-02T04:14:55;9.40;99.90
64869;DHT22;51349;52.424;10.840;2022-09-02T04:19:59;9.30;99.90
64869;DHT22;51349;52.424;10.840;2022-09-02T04:25:00;9.30;99.90
64869;DHT22;51349;52.424;10.840;2022-09-02T04:30:02;9.10;99.90
64869;DHT22;51349;52.424;10.840;2022-09-02T04:35:06;9.00;99.90
64869;DHT22;51349;52.424;10.840;2022-09-02T04:40:08;8.90;99.90
64869;DHT22;51349;52.424;10.840;2022-09-02T04:45:09;8.90;99.90
64869;DHT22;51349;52.424;10.840;2022-09-02T04:50:11;9.00;99.90
64869;DHT22;51349;52.424;10.840;2022-09-02T04:55:12;9.10;99.90
64869;DHT22;51349;52.424;10.840;2022-09-02T05:00:16;9.20;99.90
64869;DHT22;51349;52.424;10.840;2022-09-02T05:05:21;9.10;99.90
64869;DHT22;51349;52.424;10.840;2022-09-02T05:10:27;9.10;99.90
64869;DHT22;51349;52.424;10.840;2022-09-02T05:15:28;9.10;99.90
64869;DHT22;51349;52.424;10.840;2022-09-02T05:20:42;9.20;99.90
64869;DHT22;51349;52.424;10.840;2022-09-02T05:25:43;9.40;99.90
64869;DHT22;51349;52.424;10.840;2022-09-02T05:30:47;9.50;99.90
64869;DHT22;51349;52.424;10.840;2022-09-02T05:35:47;9.60;99.90
64869;DHT22;51349;52.424;10.840;2022-09-02T05:40:59;9.70;99.90
64869;DHT22;51349;52.424;10.840;2022-09-02T05:46:09;9.70;99.90
64869;DHT22;51349;52.424;10.840;2022-09-02T05:51:10;9.80;99.90
64869;DHT22;51349;52.424;10.840;2022-09-02T05:56:11;9.90;99.90
64869;DHT22;51349;52.424;10.840;2022-09-02T06:01:14;10.00;99.90
64869;DHT22;51349;52.424;10.840;2022-09-02T06:06:15;10.10;99.90
64869;DHT22;51349;52.424;10.840;2022-09-02T06:11:17;10.30;99.90
64869;DHT22;51349;52.424;10.840;2022-09-02T06:16:22;10.40;99.90
64869;DHT22;51349;52.424;10.840;2022-09-02T06:21:23;10.50;99.90
64869;DHT22;51349;52.424;10.840;2022-09-02T06:26:35;10.70;99.90
64869;DHT22;51349;52.424;10.840;2022-09-02T06:31:36;10.90;99.90
64869;DHT22;51349;52.424;10.840;2022-09-02T06:36:40;11.10;99.90
64869;DHT22;51349;52.424;10.840;2022-09-02T06:41:43;11.40;99.90
64869;DHT22;51349;52.424;10.840;2022-09-02T06:46:52;11.60;99.90
64869;DHT22;51349;52.424;10.840;2022-09-02T06:51:54;11.80;99.90
64869;DHT22;51349;52.424;10.840;2022-09-02T06:56:58;12.30;99.90
64869;DHT22;51349;52.424;10.840;2022-09-02T07:01:59;12.30;99.90
64869;DHT22;51349;52.424;10.840;2022-09-02T07:07:03;12.40;99.90
64869;DHT22;51349;52.424;10.840;2022-09-02T07:12:04;12.70;99.90
64869;DHT22;51349;52.424;10.840;2022-09-02T07:17:07;13.00;99.90
64869;DHT22;51349;52.424;10.840;2022-09-02T07:22:08;13.20;99.90
64869;DHT22;51349;52.424;10.840;2022-09-02T07:27:09;13.50;99.90
64869;DHT22;51349;52.424;10.840;2022-09-02T07:32:13;13.90;99.90
64869;DHT22;51349;52.424;10.840;2022-09-02T07:37:14;14.30;99.90
64869;DHT22;51349;52.424;10.840;2022-09-02T07:42:15;14.80;99.90
64869;DHT22;51349;52.424;10.840;2022-09-02T07:47:16;15.20;99.90
64869;DHT22;51349;52.424;10.840;2022-09-02T07:52:17;15.70;99.90
64869;DHT22;51349;52.424;10.840;2022-09-02T07:57:17;16.30;99.90
64869;DHT22;51349;52.424;10.840;2022-09-02T08:02:19;16.80;99.90
64869;DHT22;51349;52.424;10.840;2022-09-02T08:07:20;17.20;99.90
64869;DHT22;51349;52.424;10.840;2022-09-02T08:12:23;17.70;99.90
64869;DHT22;51349;52.424;10.840;2022-09-02T08:17:32;18.60;99.90
64869;DHT22;51349;52.424;10.840;2022-09-02T08:22:36;19.10;99.90
64869;DHT22;51349;52.424;10.840;2022-09-02T08:27:37;19.30;99.90
64869;DHT22;51349;52.424;10.840;2022-09-02T08:32:41;19.60;99.90
64869;DHT22;51349;52.424;10.840;2022-09-02T08:37:42;21.20;99.90
64869;DHT22;51349;52.424;10.840;2022-09-02T08:42:48;21.10;99.90
64869;DHT22;51349;52.424;10.840;2022-09-02T08:48:05;22.40;99.90
64869;DHT22;51349;52.424;10.840;2022-09-02T08:58:28;23.40;97.60
64869;DHT22;51349;52.424;10.840;2022-09-02T09:24:50;25.10;88.80
64869;DHT22;51349;52.424;10.840;2022-09-02T09:29:51;25.70;91.40
64869;DHT22;51349;52.424;10.840;2022-09-02T09:39:53;25.40;89.30
64869;DHT22;51349;52.424;10.840;2022-09-02T09:44:54;24.80;83.00
64869;DHT22;51349;52.424;10.840;2022-09-02T09:50:24;25.00;81.60
64869;DHT22;51349;52.424;10.840;2022-09-02T09:55:25;24.50;76.10
64869;DHT22;51349;52.424;10.840;2022-09-02T10:00:32;24.00;75.50
64869;DHT22;51349;52.424;10.840;2022-09-02T10:05:35;24.00;74.90
64869;DHT22;51349;52.424;10.840;2022-09-02T10:10:36;24.70;78.60
64869;DHT22;51349;52.424;10.840;2022-09-02T10:26:49;24.80;76.50
64869;DHT22;51349;52.424;10.840;2022-09-02T10:37:20;25.40;71.80
64869;DHT22;51349;52.424;10.840;2022-09-02T10:47:37;24.60;71.30
64869;DHT22;51349;52.424;10.840;2022-09-02T11:30:02;23.40;67.60
64869;DHT22;51349;52.424;10.840;2022-09-02T11:35:07;23.00;71.80
64869;DHT22;51349;52.424;10.840;2022-09-02T11:56:20;23.50;69.90
64869;DHT22;51349;52.424;10.840;2022-09-02T12:06:33;23.20;66.90
64869;DHT22;51349;52.424;10.840;2022-09-02T12:11:39;23.00;66.80
64869;DHT22;51349;52.424;10.840;2022-09-02T12:17:04;23.20;67.10
64869;DHT22;51349;52.424;10.840;2022-09-02T12:22:25;22.70;67.10
64869;DHT22;51349;52.424;10.840;2022-09-02T12:27:35;22.90;69.40
64869;DHT22;51349;52.424;10.840;2022-09-02T12:38:41;22.70;68.30
64869;DHT22;51349;52.424;10.840;2022-09-02T12:54:44;23.30;68.60
64869;DHT22;51349;52.424;10.840;2022-09-02T12:59:48;23.70;66.50
64869;DHT22;51349;52.424;10.840;2022-09-02T13:31:24;23.60;66.00
64869;DHT22;51349;52.424;10.840;2022-09-02T13:36:28;23.50;64.00
64869;DHT22;51349;52.424;10.840;2022-09-02T13:41:31;23.40;63.00
64869;DHT22;51349;52.424;10.840;2022-09-02T13:46:32;23.60;64.40
64869;DHT22;51349;52.424;10.840;2022-09-02T13:51:33;23.60;63.80
64869;DHT22;51349;52.424;10.840;2022-09-02T13:56:33;23.40;65.00
64869;DHT22;51349;52.424;10.840;2022-09-02T14:01:36;23.50;62.10
64869;DHT22;51349;52.424;10.840;2022-09-02T14:06:44;23.50;61.40
64869;DHT22;51349;52.424;10.840;2022-09-02T14:11:46;23.00;65.00
64869;DHT22;51349;52.424;10.840;2022-09-02T14:16:48;22.90;64.40
64869;DHT22;51349;52.424;10.840;2022-09-02T14:26:51;23.30;62.30
64869;DHT22;51349;52.424;10.840;2022-09-02T14:32:25;23.50;65.20
64869;DHT22;51349;52.424;10.840;2022-09-02T14:37:27;23.10;64.90
64869;DHT22;51349;52.424;10.840;2022-09-02T14:42:30;23.10;66.00
64869;DHT22;51349;52.424;10.840;2022-09-02T14:47:36;23.00;64.90
64869;DHT22;51349;52.424;10.840;2022-09-02T14:52:45;24.00;65.10
64869;DHT22;51349;52.424;10.840;2022-09-02T14:57:47;24.20;66.40
64869;DHT22;51349;52.424;10.840;2022-09-02T15:02:55;23.60;62.20
64869;DHT22;51349;52.424;10.840;2022-09-02T15:07:56;23.00;63.30
64869;DHT22;51349;52.424;10.840;2022-09-02T15:12:57;22.90;62.70
64869;DHT22;51349;52.424;10.840;2022-09-02T15:17:58;22.80;63.60
64869;DHT22;51349;52.424;10.840;2022-09-02T15:22:58;23.50;62.90
64869;DHT22;51349;52.424;10.840;2022-09-02T15:28:00;23.80;64.10
64869;DHT22;51349;52.424;10.840;2022-09-02T15:33:05;23.70;64.60
64869;DHT22;51349;52.424;10.840;2022-09-02T15:38:06;23.30;65.50
64869;DHT22;51349;52.424;10.840;2022-09-02T15:43:07;22.70;67.50
64869;DHT22;51349;52.424;10.840;2022-09-02T15:48:08;23.30;67.60
64869;DHT22;51349;52.424;10.840;2022-09-02T15:53:08;23.50;66.60
64869;DHT22;51349;52.424;10.840;2022-09-02T15:58:09;23.50;67.60
64869;DHT22;51349;52.424;10.840;2022-09-02T16:03:10;23.10;69.30
64869;DHT22;51349;52.424;10.840;2022-09-02T16:08:11;22.50;67.30
64869;DHT22;51349;52.424;10.840;2022-09-02T16:13:12;23.10;68.00
64869;DHT22;51349;52.424;10.840;2022-09-02T16:18:13;23.10;64.90
64869;DHT22;51349;52.424;10.840;2022-09-02T16:23:14;23.50;66.60
64869;DHT22;51349;52.424;10.840;2022-09-02T16:28:14;23.50;63.70
64869;DHT22;51349;52.424;10.840;2022-09-02T16:33:15;23.40;66.30
64869;DHT22;51349;52.424;10.840;2022-09-02T16:38:16;23.80;66.10
64869;DHT22;51349;52.424;10.840;2022-09-02T16:43:16;23.40;64.20
64869;DHT22;51349;52.424;10.840;2022-09-02T16:48:21;23.20;64.60
64869;DHT22;51349;52.424;10.840;2022-09-02T16:53:22;22.80;64.60
64869;DHT22;51349;52.424;10.840;2022-09-02T16:58:24;22.50;65.00
64869;DHT22;51349;52.424;10.840;2022-09-02T17:03:25;22.30;65.30
64869;DHT22;51349;52.424;10.840;2022-09-02T17:08:26;22.50;65.40
64869;DHT22;51349;52.424;10.840;2022-09-02T17:13:26;22.20;65.80
64869;DHT22;51349;52.424;10.840;2022-09-02T17:18:27;22.00;64.90
64869;DHT22;51349;52.424;10.840;2022-09-02T17:23:28;21.80;65.80
64869;DHT22;51349;52.424;10.840;2022-09-02T17:28:28;21.80;67.60
64869;DHT22;51349;52.424;10.840;2022-09-02T17:33:29;21.40;66.00
64869;DHT22;51349;52.424;10.840;2022-09-02T17:38:30;21.30;68.00
64869;DHT22;51349;52.424;10.840;2022-09-02T17:43:30;21.10;67.50
64869;DHT22;51349;52.424;10.840;2022-09-02T17:48:31;21.00;69.70
64869;DHT22;51349;52.424;10.840;2022-09-02T17:53:32;20.60;68.90
64869;DHT22;51349;52.424;10.840;2022-09-02T17:58:44;20.50;69.30
64869;DHT22;51349;52.424;10.840;2022-09-02T18:09:20;20.10;69.80
64869;DHT22;51349;52.424;10.840;2022-09-02T18:14:39;19.90;70.00
64869;DHT22;51349;52.424;10.840;2022-09-02T18:19:53;19.90;70.50
64869;DHT22;51349;52.424;10.840;2022-09-02T18:30:15;19.60;72.80
64869;DHT22;51349;52.424;10.840;2022-09-02T18:35:41;19.40;72.30
64869;DHT22;51349;52.424;10.840;2022-09-02T18:41:32;19.30;73.20
64869;DHT22;51349;52.424;10.840;2022-09-02T18:51:48;19.10;74.80
64869;DHT22;51349;52.424;10.840;2022-09-02T18:56:58;19.00;74.50
64869;DHT22;51349;52.424;10.840;2022-09-02T19:07:22;18.90;75.00
64869;DHT22;51349;52.424;10.840;2022-09-02T19:12:41;18.70;75.40
64869;DHT22;51349;52.424;10.840;2022-09-02T19:17:43;18.70;75.30
64869;DHT22;51349;52.424;10.840;2022-09-02T19:22:48;18.60;75.60
64869;DHT22;51349;52.424;10.840;2022-09-02T19:27:49;18.70;77.00
64869;DHT22;51349;52.424;10.840;2022-09-02T19:32:53;18.60;76.30
64869;DHT22;51349;52.424;10.840;2022-09-02T19:37:56;18.60;77.00
64869;DHT22;51349;52.424;10.840;2022-09-02T19:42:59;18.60;76.80
64869;DHT22;51349;52.424;10.840;2022-09-02T19:48:04;18.60;76.30
64869;DHT22;51349;52.424;10.840;2022-09-02T19:53:07;18.60;77.30
64869;DHT22;51349;52.424;10.840;2022-09-02T19:58:07;18.50;76.70
64869;DHT22;51349;52.424;10.840;2022-09-02T20:03:09;18.40;77.10
64869;DHT22;51349;52.424;10.840;2022-09-02T20:08:10;18.40;77.10
64869;DHT22;51349;52.424;10.840;2022-09-02T20:13:12;18.40;77.20
64869;DHT22;51349;52.424;10.840;2022-09-02T20:18:17;18.30;78.00
64869;DHT22;51349;52.424;10.840;2022-09-02T20:23:19;18.30;77.30
64869;DHT22;51349;52.424;10.840;2022-09-02T20:28:24;18.20;77.40
64869;DHT22;51349;52.424;10.840;2022-09-02T20:33:32;18.20;77.50
64869;DHT22;51349;52.424;10.840;2022-09-02T20:39:02;18.10;78.10
64869;DHT22;51349;52.424;10.840;2022-09-02T20:54:47;18.00;77.90
64869;DHT22;51349;52.424;10.840;2022-09-02T21:05:02;18.00;78.50
64869;DHT22;51349;52.424;10.840;2022-09-02T21:10:20;17.90;79.20
64869;DHT22;51349;52.424;10.840;2022-09-02T21:15:38;17.90;79.20
64869;DHT22;51349;52.424;10.840;2022-09-02T21:37:36;17.60;80.50
64869;DHT22;51349;52.424;10.840;2022-09-02T21:53:51;17.50;82.10
64869;DHT22;51349;52.424;10.840;2022-09-02T22:04:11;17.40;82.20
64869;DHT22;51349;52.424;10.840;2022-09-02T22:09:27;17.50;81.30
64869;DHT22;51349;52.424;10.840;2022-09-02T22:19:58;17.40;82.10
64869;DHT22;51349;52.424;10.840;2022-09-02T22:25:02;17.30;82.30
64869;DHT22;51349;52.424;10.840;2022-09-02T22:30:10;17.30;82.60
64869;DHT22;51349;52.424;10.840;2022-09-02T22:40:47;17.10;83.20
64869;DHT22;51349;52.424;10.840;2022-09-02T22:45:55;17.00;82.70
64869;DHT22;51349;52.424;10.840;2022-09-02T22:51:22;16.90;83.30
64869;DHT22;51349;52.424;10.840;2022-09-02T23:02:26;16.70;84.90
64869;DHT22;51349;52.424;10.840;2022-09-02T23:07:29;16.50;85.30
64869;DHT22;51349;52.424;10.840;2022-09-02T23:12:55;16.40;86.70
64869;DHT22;51349;52.424;10.840;2022-09-02T23:18:40;16.30;86.70
64869;DHT22;51349;52.424;10.840;2022-09-02T23:29:21;16.00;87.40
64869;DHT22;51349;52.424;10.840;2022-09-02T23:45:32;15.60;88.10
64869;DHT22;51349;52.424;10.840;2022-09-02T23:56:47;15.50;88.10
